Time;durP1;ratioP1;P1;durP2;ratioP2;P2;SDS_P1;SDS_P2;PMS_P1;PMS_P2;Temp;Humidity;BMP_temperature;BMP_pressure;BME280_temperature;BME280_humidity;BME280_pressure;Samples;Min_cycle;Max_cycle;Signal;HPM_P1;HPM_P2
2021/04/18 00:01:16;;;;;;;9.15;7.20;;;6.80;92.60;;;;;;6202596;28;20042;-82
2021/04/18 00:04:17;;;;;;;9.23;7.50;;;7.60;93.10;;;;;;6186936;28;20022;-83
2021/04/18 00:07:17;;;;;;;8.90;7.35;;;6.20;92.60;;;;;;6187111;28;20184;-84
2021/04/18 00:10:20;;;;;;;8.98;7.60;;;6.60;92.90;;;;;;6210107;28;20034;-81
2021/04/18 00:13:21;;;;;;;10.05;8.15;;;8.70;94.10;;;;;;6219247;28;20388;-82
2021/04/18 00:16:21;;;;;;;8.77;6.75;;;6.10;99.90;;;;;;6200928;28;20109;-82
2021/04/18 00:19:22;;;;;;;8.73;7.47;;;6.90;94.10;;;;;;6218454;28;20480;-83
2021/04/18 00:22:22;;;;;;;9.63;7.22;;;6.50;94.00;;;;;;6218879;28;20456;-83
2021/04/18 00:25:23;;;;;;;10.60;7.10;;;7.10;94.00;;;;;;6218478;28;20443;-82
2021/04/18 00:28:23;;;;;;;9.75;7.32;;;7.30;94.10;;;;;;6218905;28;20041;-81
2021/04/18 00:31:24;;;;;;;8.38;7.38;;;5.90;94.00;;;;;;6217797;28;20045;-84
2021/04/18 00:34:25;;;;;;;7.75;6.82;;;6.10;93.80;;;;;;6196004;28;20443;-83
2021/04/18 00:37:25;;;;;;;8.95;7.65;;;7.70;94.40;;;;;;6186896;28;20045;-82
2021/04/18 00:40:26;;;;;;;9.93;7.97;;;6.00;93.80;;;;;;6202712;28;20038;-82
2021/04/18 00:43:27;;;;;;;10.30;8.13;;;5.90;93.80;;;;;;6193000;28;20136;-82
2021/04/18 00:46:27;;;;;;;9.98;7.57;;;6.40;94.20;;;;;;6220585;28;20042;-82
2021/04/18 00:49:28;;;;;;;10.35;7.53;;;6.00;99.90;;;;;;6187051;28;20026;-82
2021/04/18 00:52:28;;;;;;;8.68;7.68;;;6.50;94.30;;;;;;6212261;28;20038;-83
2021/04/18 00:55:29;;;;;;;8.43;7.20;;;6.30;94.30;;;;;;6187395;28;20477;-81
2021/04/18 00:58:30;;;;;;;8.98;7.40;;;6.00;94.40;;;;;;6216775;28;20040;-82
2021/04/18 01:01:31;;;;;;;8.50;6.85;;;6.80;94.60;;;;;;6249427;28;20022;-82
2021/04/18 01:04:31;;;;;;;10.35;7.95;;;6.90;94.70;;;;;;6248950;28;20046;-84
2021/04/18 01:07:33;;;;;;;9.55;7.43;;;5.40;99.90;;;;;;6244813;28;20053;-82
2021/04/18 01:10:34;;;;;;;10.23;7.90;;;6.80;94.40;;;;;;6249418;28;20050;-81
2021/04/18 01:13:34;;;;;;;9.30;7.95;;;6.30;94.50;;;;;;6244240;28;20518;-81
2021/04/18 01:16:35;;;;;;;9.05;7.68;;;6.20;94.50;;;;;;6214698;28;20471;-82
2021/04/18 01:19:36;;;;;;;9.40;7.47;;;7.00;94.60;;;;;;6219312;28;20034;-82
2021/04/18 01:22:36;;;;;;;9.02;7.30;;;7.30;95.00;;;;;;6187369;28;20029;-82
2021/04/18 01:25:41;;;;;;;9.57;8.02;;;6.10;94.60;;;;;;6203045;28;20030;-82
2021/04/18 01:28:42;;;;;;;10.48;7.35;;;5.80;94.60;;;;;;6218848;28;20026;-81
2021/04/18 01:31:43;;;;;;;8.23;7.20;;;6.00;94.70;;;;;;6214327;28;20033;-81
2021/04/18 01:34:45;;;;;;;8.13;7.22;;;5.80;99.90;;;;;;6201817;28;20042;-82
2021/04/18 01:37:46;;;;;;;9.57;7.70;;;6.20;94.30;;;;;;6217645;28;20061;-82
2021/04/18 01:40:46;;;;;;;9.23;7.20;;;6.10;94.20;;;;;;6216926;28;20041;-84
2021/04/18 01:43:47;;;;;;;11.30;7.55;;;6.30;94.20;;;;;;6217697;28;20049;-84
2021/04/18 01:46:48;;;;;;;9.27;7.97;;;7.20;94.50;;;;;;6194440;28;20052;-82
2021/04/18 01:49:48;;;;;;;9.25;8.05;;;6.00;94.50;;;;;;6216948;28;20084;-82
2021/04/18 01:52:49;;;;;;;8.27;7.32;;;6.00;94.30;;;;;;6200798;28;20088;-83
2021/04/18 01:55:49;;;;;;;8.60;7.38;;;6.00;94.50;;;;;;6211138;28;20556;-83
2021/04/18 01:58:50;;;;;;;9.70;8.35;;;6.10;94.10;;;;;;6196234;28;20022;-83
2021/04/18 02:01:50;;;;;;;8.57;7.25;;;6.40;94.30;;;;;;6216397;28;20492;-82
2021/04/18 02:04:54;;;;;;;8.50;7.70;;;6.10;94.10;;;;;;6184954;28;20025;-83
2021/04/18 02:07:55;;;;;;;9.05;8.15;;;6.40;94.30;;;;;;6209236;28;20451;-82
2021/04/18 02:10:55;;;;;;;11.38;7.65;;;6.50;94.40;;;;;;6209414;28;20034;-82
2021/04/18 02:13:56;;;;;;;9.82;7.85;;;6.00;94.50;;;;;;6213795;28;20029;-83
2021/04/18 02:16:56;;;;;;;9.65;8.32;;;7.00;95.00;;;;;;6211619;28;20030;-82
2021/04/18 02:19:57;;;;;;;9.43;8.38;;;5.70;99.90;;;;;;6199917;28;20078;-83
2021/04/18 02:22:58;;;;;;;9.82;8.05;;;5.90;99.90;;;;;;6190234;28;20068;-83
2021/04/18 02:25:58;;;;;;;11.63;8.60;;;5.90;99.90;;;;;;6185444;28;20044;-83
2021/04/18 02:28:59;;;;;;;9.23;8.15;;;5.90;99.90;;;;;;6206790;28;20657;-82
2021/04/18 02:31:59;;;;;;;8.93;8.02;;;5.70;99.90;;;;;;6184833;28;20484;-82
2021/04/18 02:35:01;;;;;;;10.05;7.93;;;5.70;99.90;;;;;;6184979;28;20030;-83
2021/04/18 02:38:01;;;;;;;8.52;7.45;;;5.70;99.90;;;;;;6216755;28;20121;-82
2021/04/18 02:41:02;;;;;;;7.80;6.82;;;;;;;;;;6211788;28;20484;-83
2021/04/18 02:44:04;;;;;;;8.73;6.88;;;;;;;;;;6216720;28;20026;-82
2021/04/18 02:47:04;;;;;;;8.45;6.93;;;5.70;99.90;;;;;;6207958;28;20057;-84
2021/04/18 02:50:06;;;;;;;9.30;6.97;;;5.60;99.90;;;;;;6216792;28;20069;-84
2021/04/18 02:53:07;;;;;;;8.63;7.47;;;5.40;99.90;;;;;;6218525;28;20082;-82
2021/04/18 02:56:08;;;;;;;10.07;7.28;;;;;;;;;;6184389;28;20117;-84
2021/04/18 02:59:08;;;;;;;9.73;7.20;;;5.50;99.90;;;;;;6216349;28;20026;-82
2021/04/18 03:02:09;;;;;;;10.35;7.75;;;5.60;99.90;;;;;;6184068;28;20393;-84
2021/04/18 03:05:10;;;;;;;8.32;6.57;;;;;;;;;;6184919;28;20037;-83
2021/04/18 03:08:11;;;;;;;9.60;6.80;;;;;;;;;;6199667;28;20396;-84
2021/04/18 03:11:12;;;;;;;9.05;7.13;;;5.60;99.90;;;;;;6199366;28;20033;-82
2021/04/18 03:14:12;;;;;;;8.38;6.88;;;5.80;99.90;;;;;;6220531;28;20053;-84
2021/04/18 03:17:13;;;;;;;9.48;6.70;;;5.80;99.90;;;;;;6204621;28;20028;-82
2021/04/18 03:20:14;;;;;;;8.73;6.65;;;6.70;95.50;;;;;;6188651;28;20061;-82
2021/04/18 03:23:15;;;;;;;8.63;6.78;;;;;;;;;;6221271;28;20042;-82
2021/04/18 03:26:19;;;;;;;8.10;6.47;;;5.40;95.90;;;;;;6210644;28;20033;-83
2021/04/18 03:29:19;;;;;;;8.20;6.30;;;5.50;95.80;;;;;;6188402;28;20034;-83
2021/04/18 03:32:20;;;;;;;9.65;6.78;;;5.80;95.60;;;;;;6202193;28;20033;-82
2021/04/18 03:35:20;;;;;;;7.50;6.60;;;5.50;95.40;;;;;;6204311;28;20026;-84
2021/04/18 03:38:21;;;;;;;8.45;6.63;;;5.50;95.40;;;;;;6220699;28;20030;-83
2021/04/18 03:41:22;;;;;;;8.55;6.60;;;5.80;99.90;;;;;;6211685;28;20049;-83
2021/04/18 03:44:22;;;;;;;11.70;7.00;;;6.60;96.00;;;;;;6190163;28;20037;-84
2021/04/18 03:47:23;;;;;;;8.10;6.28;;;7.90;96.20;;;;;;6188868;28;20371;-82
2021/04/18 03:50:23;;;;;;;7.93;6.40;;;6.00;95.80;;;;;;6219746;28;20088;-83
2021/04/18 03:53:24;;;;;;;7.65;6.57;;;5.60;96.10;;;;;;6220521;28;20043;-83
2021/04/18 03:56:24;;;;;;;7.78;6.53;;;5.70;96.10;;;;;;6191656;28;20361;-82
2021/04/18 03:59:25;;;;;;;10.82;6.57;;;6.80;96.30;;;;;;6188007;28;20068;-82
2021/04/18 04:02:26;;;;;;;7.88;6.68;;;5.60;96.30;;;;;;6219866;28;20443;-82
2021/04/18 04:05:26;;;;;;;9.15;6.50;;;5.80;96.50;;;;;;6219784;28;20037;-83
2021/04/18 04:08:27;;;;;;;9.60;6.28;;;6.80;96.70;;;;;;6202897;28;20104;-84
2021/04/18 04:11:28;;;;;;;8.27;6.30;;;6.00;96.80;;;;;;6202993;28;20468;-82
2021/04/18 04:14:28;;;;;;;10.43;6.32;;;5.30;99.90;;;;;;6219421;28;20033;-84
2021/04/18 04:17:29;;;;;;;8.88;6.28;;;5.40;96.30;;;;;;6219546;28;20034;-83
2021/04/18 04:20:29;;;;;;;6.75;5.68;;;6.90;96.50;;;;;;6203122;28;20120;-83
2021/04/18 04:23:30;;;;;;;8.05;6.40;;;5.80;96.30;;;;;;6218676;28;20030;-82
2021/04/18 04:26:30;;;;;;;8.35;6.50;;;5.80;96.30;;;;;;6216943;28;20037;-84
2021/04/18 04:29:31;;;;;;;8.88;6.25;;;6.40;96.80;;;;;;6186678;28;20034;-82
2021/04/18 04:32:32;;;;;;;8.18;6.70;;;5.80;96.60;;;;;;6202685;28;20468;-83
2021/04/18 04:35:32;;;;;;;10.93;7.45;;;6.50;97.10;;;;;;6218796;28;20026;-82
2021/04/18 04:38:33;;;;;;;8.45;7.10;;;7.10;97.50;;;;;;6219053;28;20034;-82
2021/04/18 04:41:34;;;;;;;12.75;7.07;;;5.40;97.00;;;;;;6218332;28;20062;-83
2021/04/18 04:44:35;;;;;;;8.65;7.22;;;6.70;97.30;;;;;;6202776;28;20068;-82
2021/04/18 04:47:35;;;;;;;7.78;6.82;;;5.80;97.00;;;;;;6202854;28;20030;-83
2021/04/18 04:50:36;;;;;;;10.80;7.43;;;5.30;99.90;;;;;;6200390;28;20042;-82
2021/04/18 04:53:36;;;;;;;9.85;6.97;;;5.60;97.40;;;;;;6202308;28;20538;-83
2021/04/18 04:56:37;;;;;;;8.57;6.95;;;4.80;97.00;;;;;;6218448;28;20057;-83
2021/04/18 04:59:38;;;;;;;8.25;6.70;;;5.60;97.10;;;;;;6218216;28;20030;-83
2021/04/18 05:02:38;;;;;;;9.43;7.28;;;5.90;97.20;;;;;;6218104;28;20392;-83
2021/04/18 05:05:39;;;;;;;13.13;7.95;;;6.80;97.70;;;;;;6218307;28;20037;-83
2021/04/18 05:08:39;;;;;;;8.30;6.68;;;7.20;98.30;;;;;;6201782;28;20434;-82
2021/04/18 05:11:40;;;;;;;8.50;6.55;;;6.20;98.30;;;;;;6218088;28;20797;-82
2021/04/18 05:14:40;;;;;;;7.05;6.03;;;6.00;98.10;;;;;;6187831;28;20061;-83
2021/04/18 05:17:41;;;;;;;8.80;6.88;;;6.30;97.40;;;;;;6186769;28;20034;-83
2021/04/18 05:20:42;;;;;;;7.80;6.97;;;5.80;98.10;;;;;;6185588;28;20029;-83
2021/04/18 05:23:42;;;;;;;8.73;7.00;;;5.80;98.20;;;;;;6185974;28;20476;-83
2021/04/18 05:26:43;;;;;;;8.30;6.90;;;6.60;98.30;;;;;;6207035;28;20058;-82
2021/04/18 05:29:43;;;;;;;10.00;7.35;;;5.70;98.00;;;;;;6187521;28;20026;-83
2021/04/18 05:32:44;;;;;;;9.55;7.07;;;6.30;98.20;;;;;;6217858;28;20025;-83
2021/04/18 05:35:45;;;;;;;10.20;7.28;;;6.20;98.40;;;;;;6216820;28;20030;-83
2021/04/18 05:38:45;;;;;;;8.63;7.13;;;;;;;;;;6201390;28;20025;-84
2021/04/18 05:41:46;;;;;;;8.40;7.10;;;5.60;96.20;;;;;;6201345;28;20053;-82
2021/04/18 05:44:47;;;;;;;7.72;6.93;;;5.50;99.90;;;;;;6184944;28;20411;-83
2021/04/18 05:47:47;;;;;;;10.38;7.00;;;5.50;99.90;;;;;;6214275;28;20104;-84
2021/04/18 05:50:48;;;;;;;11.35;7.15;;;;;;;;;;6217068;28;20310;-83
2021/04/18 05:53:49;;;;;;;8.70;6.47;;;5.70;99.90;;;;;;6200893;28;20076;-83
2021/04/18 05:56:50;;;;;;;8.80;7.40;;;;;;;;;;6186043;28;20033;-83
2021/04/18 05:59:51;;;;;;;7.97;6.75;;;5.60;99.90;;;;;;6217631;28;20034;-83
2021/04/18 06:02:51;;;;;;;9.30;6.88;;;5.50;99.90;;;;;;6198286;28;20172;-83
2021/04/18 06:05:52;;;;;;;7.95;6.85;;;5.70;99.90;;;;;;6214510;28;20034;-80
2021/04/18 06:08:53;;;;;;;7.95;6.22;;;;;;;;;;6208106;28;20034;-81
2021/04/18 06:11:54;;;;;;;8.73;6.78;;;;;;;;;;6218190;28;20041;-82
2021/04/18 06:14:54;;;;;;;15.45;11.93;;;6.10;99.90;;;;;;6214818;28;20026;-83
2021/04/18 06:17:55;;;;;;;18.50;15.25;;;;;;;;;;6217422;28;20036;-82
2021/04/18 06:20:56;;;;;;;10.25;8.43;;;;;;;;;;6216752;28;20116;-82
2021/04/18 06:23:57;;;;;;;14.35;12.80;;;6.70;99.90;;;;;;6216480;28;20391;-83
2021/04/18 06:26:58;;;;;;;8.65;7.75;;;;;;;;;;6209594;28;20034;-80
2021/04/18 06:29:59;;;;;;;8.68;7.70;;;;;;;;;;6216560;28;20435;-80
2021/04/18 06:33:00;;;;;;;9.00;7.78;;;;;;;;;;6207588;28;20041;-82
2021/04/18 06:36:01;;;;;;;11.13;8.52;;;;;;;;;;6200564;28;20113;-80
2021/04/18 06:39:02;;;;;;;9.95;8.15;;;6.60;99.90;;;;;;6200504;28;20036;-80
2021/04/18 06:42:04;;;;;;;8.60;7.70;;;6.60;99.90;;;;;;6184405;28;20799;-80
2021/04/18 06:45:06;;;;;;;10.83;8.70;;;6.80;97.90;;;;;;6216752;28;20034;-79
2021/04/18 06:48:10;;;;;;;10.07;8.43;;;6.80;97.80;;;;;;6220688;28;20030;-81
2021/04/18 06:51:10;;;;;;;11.95;9.10;;;6.90;97.50;;;;;;6220779;28;20042;-80
2021/04/18 06:54:11;;;;;;;12.82;8.93;;;6.90;98.40;;;;;;6204476;28;20022;-79
2021/04/18 06:57:12;;;;;;;12.45;9.10;;;7.30;98.60;;;;;;6221129;28;20122;-78
2021/04/18 07:00:13;;;;;;;14.70;8.93;;;7.10;98.70;;;;;;6222087;28;20037;-81
2021/04/18 07:03:18;;;;;;;10.57;8.98;;;7.10;98.50;;;;;;6207755;28;20052;-81
2021/04/18 07:06:23;;;;;;;10.73;8.40;;;8.10;98.50;;;;;;6221260;28;20037;-81
2021/04/18 07:09:25;;;;;;;12.60;8.93;;;7.50;98.50;;;;;;6204895;28;20022;-82
2021/04/18 07:12:30;;;;;;;9.07;7.85;;;7.90;99.30;;;;;;6173047;28;20388;-81
2021/04/18 07:15:42;;;;;;;10.25;8.75;;;7.70;97.40;;;;;;6198153;28;20468;-82
2021/04/18 07:18:42;;;;;;;10.35;8.52;;;7.80;97.00;;;;;;6195359;28;20042;-82
2021/04/18 07:21:47;;;;;;;9.00;7.90;;;8.20;97.30;;;;;;6218330;28;20205;-80
2021/04/18 07:24:49;;;;;;;10.38;8.02;;;8.00;97.60;;;;;;6215783;28;20026;-82
2021/04/18 07:27:51;;;;;;;8.63;7.73;;;7.60;97.40;;;;;;6215207;28;20052;-83
2021/04/18 07:30:54;;;;;;;10.30;8.52;;;7.60;97.40;;;;;;6191250;28;20280;-83
2021/04/18 07:34:06;;;;;;;9.55;8.55;;;7.60;97.10;;;;;;6210705;28;20060;-80
2021/04/18 07:37:25;;;;;;;10.48;9.32;;;7.60;95.60;;;;;;6191897;28;20026;-81
2021/04/18 07:40:31;;;;;;;11.85;9.32;;;7.50;97.40;;;;;;6193628;28;20041;-80
2021/04/18 07:43:31;;;;;;;15.48;10.27;;;7.40;99.90;;;;;;6181382;28;20042;-84
2021/04/18 07:46:32;;;;;;;10.88;9.25;;;7.30;97.80;;;;;;6181090;28;20464;-81
2021/04/18 07:49:33;;;;;;;11.20;8.98;;;;;;;;;;6182012;28;20438;-82
2021/04/18 07:52:35;;;;;;;12.70;9.45;;;7.30;96.00;;;;;;6195504;28;20030;-76
2021/04/18 07:55:35;;;;;;;11.90;9.13;;;8.30;97.90;;;;;;6196205;28;20041;-81
2021/04/18 07:58:40;;;;;;;11.52;9.02;;;8.30;95.90;;;;;;6194233;28;20023;-80
2021/04/18 08:01:41;;;;;;;11.20;7.95;;;8.30;94.90;;;;;;6180231;28;20077;-82
2021/04/18 08:04:42;;;;;;;10.35;8.70;;;9.40;96.10;;;;;;6195810;28;20030;-81
2021/04/18 08:07:58;;;;;;;11.73;8.98;;;8.30;96.60;;;;;;6180169;28;20032;-80
2021/04/18 08:10:59;;;;;;;10.35;9.13;;;8.50;97.60;;;;;;6211887;28;20477;-81
2021/04/18 08:14:00;;;;;;;9.68;8.63;;;8.30;97.00;;;;;;6181730;28;20030;-80
2021/04/18 08:17:10;;;;;;;10.88;9.05;;;8.30;97.00;;;;;;6195857;28;20034;-81
2021/04/18 08:20:11;;;;;;;11.40;9.05;;;8.30;95.50;;;;;;6195277;28;20179;-80
2021/04/18 08:23:17;;;;;;;11.30;10.10;;;8.90;96.70;;;;;;6209597;28;20023;-80
2021/04/18 08:26:21;;;;;;;9.20;8.23;;;8.50;99.90;;;;;;6195767;28;20210;-80
2021/04/18 08:29:22;;;;;;;9.13;8.23;;;8.40;96.10;;;;;;6182751;28;20468;-82
2021/04/18 08:32:43;;;;;;;9.57;8.57;;;8.70;95.40;;;;;;6178712;28;20092;-80
2021/04/18 08:35:43;;;;;;;9.60;8.57;;;8.90;93.30;;;;;;6178997;28;20065;-80
2021/04/18 08:38:45;;;;;;;8.60;7.65;;;9.50;95.40;;;;;;6178641;28;20022;-79
2021/04/18 08:41:57;;;;;;;8.65;7.75;;;9.20;93.60;;;;;;6186463;28;20141;-80
2021/04/18 08:44:58;;;;;;;11.57;8.73;;;9.10;92.00;;;;;;6215235;28;20476;-80
2021/04/18 08:47:58;;;;;;;9.68;8.68;;;9.10;92.60;;;;;;6215379;28;20033;-80
2021/04/18 08:51:07;;;;;;;9.65;8.15;;;9.00;93.50;;;;;;6202296;28;20038;-80
2021/04/18 08:54:10;;;;;;;8.68;7.55;;;8.90;93.10;;;;;;6218579;28;20424;-80
2021/04/18 08:57:25;;;;;;;9.40;7.82;;;8.60;99.90;;;;;;6218539;28;20022;-80
2021/04/18 09:00:25;;;;;;;9.30;7.70;;;8.70;91.30;;;;;;6213942;28;20042;-84
2021/04/18 09:03:26;;;;;;;9.75;8.55;;;8.40;99.90;;;;;;6199292;28;21053;-84
2021/04/18 09:06:47;;;;;;;11.95;10.63;;;8.70;99.90;;;;;;6205272;28;20032;-80
2021/04/18 09:09:48;;;;;;;12.60;7.43;;;8.90;99.90;;;;;;6220213;28;20546;-77
2021/04/18 09:12:49;;;;;;;8.73;7.60;;;9.40;99.70;;;;;;6185583;28;20029;-84
2021/04/18 09:15:49;;;;;;;9.68;7.45;;;9.50;99.40;;;;;;6201640;28;20566;-81
2021/04/18 09:18:50;;;;;;;11.27;9.07;;;9.30;99.90;;;;;;6207519;28;20057;-81
2021/04/18 09:22:30;;;;;;;11.02;9.43;;;9.30;97.70;;;;;;6211441;28;20092;-81
2021/04/18 09:25:31;;;;;;;22.05;14.38;;;9.10;99.90;;;;;;6216018;28;20050;-82
2021/04/18 09:28:31;;;;;;;11.52;9.25;;;9.30;99.90;;;;;;6218122;28;20364;-80
2021/04/18 09:31:32;;;;;;;9.13;7.20;;;9.10;99.90;;;;;;6213845;28;20029;-80
2021/04/18 09:34:33;;;;;;;9.57;8.00;;;9.20;98.90;;;;;;6212032;28;20060;-81
2021/04/18 09:37:41;;;;;;;8.50;7.25;;;9.20;99.80;;;;;;6185871;28;20084;-81
2021/04/18 09:40:42;;;;;;;11.25;8.50;;;;;;;;;;6201518;28;20530;-80
2021/04/18 09:43:43;;;;;;;10.00;7.13;;;9.00;99.90;;;;;;6219270;28;20069;-80
2021/04/18 09:46:44;;;;;;;9.48;7.07;;;9.00;99.90;;;;;;6203578;28;20030;-83
2021/04/18 09:49:46;;;;;;;9.13;7.93;;;9.00;98.50;;;;;;6202127;28;20038;-82
2021/04/18 09:52:46;;;;;;;10.83;7.50;;;9.00;90.50;;;;;;6217498;28;20022;-81
2021/04/18 09:56:00;;;;;;;14.50;11.02;;;9.00;90.50;;;;;;6201832;28;20543;-82
2021/04/18 09:59:16;;;;;;;10.68;7.25;;;9.10;89.00;;;;;;6215022;28;20029;-84
2021/04/18 10:02:17;;;;;;;7.53;6.82;;;8.80;99.90;;;;;;6185806;28;20048;-81
2021/04/18 10:05:18;;;;;;;10.02;7.53;;;;;;;;;;6213167;28;20480;-81
2021/04/18 10:08:32;;;;;;;8.95;7.25;;;8.90;96.70;;;;;;6218817;28;20464;-77
2021/04/18 10:11:33;;;;;;;9.77;7.60;;;9.10;93.00;;;;;;6216605;28;20100;-82
2021/04/18 10:14:34;;;;;;;8.25;7.13;;;;;;;;;;6188221;28;20025;-81
2021/04/18 10:17:35;;;;;;;10.70;7.60;;;9.40;87.80;;;;;;6217347;28;20254;-81
2021/04/18 10:20:36;;;;;;;7.95;6.90;;;10.40;90.50;;;;;;6215263;28;20046;-81
2021/04/18 10:23:36;;;;;;;9.93;6.50;;;9.50;88.20;;;;;;6220914;28;20072;-78
2021/04/18 10:26:37;;;;;;;9.20;7.28;;;9.50;87.10;;;;;;6190756;28;20034;-80
2021/04/18 10:29:38;;;;;;;8.00;7.20;;;9.50;89.70;;;;;;6190805;28;20523;-79
2021/04/18 10:32:39;;;;;;;8.27;7.05;;;9.50;89.20;;;;;;6217413;28;20064;-79
2021/04/18 10:35:39;;;;;;;9.95;7.00;;;10.30;87.50;;;;;;6189443;28;20608;-79
2021/04/18 10:38:40;;;;;;;8.25;7.10;;;9.70;87.60;;;;;;6190667;28;20069;-79
2021/04/18 10:41:42;;;;;;;8.90;7.78;;;9.80;87.90;;;;;;6187990;28;20054;-79
2021/04/18 10:44:44;;;;;;;10.35;6.72;;;;;;;;;;6221535;28;20026;-81
2021/04/18 10:47:45;;;;;;;9.57;7.90;;;9.90;81.90;;;;;;6201184;28;20034;-83
2021/04/18 10:50:46;;;;;;;10.20;7.80;;;9.90;85.90;;;;;;6204624;28;20515;-82
2021/04/18 10:53:46;;;;;;;33.15;23.63;;;10.00;86.50;;;;;;6221282;28;20030;-82
2021/04/18 10:56:47;;;;;;;10.23;8.05;;;10.00;84.70;;;;;;6217950;28;20113;-80
2021/04/18 10:59:48;;;;;;;8.43;6.80;;;9.80;84.30;;;;;;6209028;28;20034;-81
2021/04/18 11:02:49;;;;;;;8.45;7.00;;;9.70;86.50;;;;;;6204517;28;20125;-82
2021/04/18 11:05:53;;;;;;;8.73;7.50;;;9.80;87.40;;;;;;6205350;28;20041;-83
2021/04/18 11:08:53;;;;;;;9.30;7.22;;;9.80;85.90;;;;;;6198004;28;20030;-84
2021/04/18 11:11:54;;;;;;;9.82;6.90;;;9.90;88.10;;;;;;6209681;28;20047;-84
2021/04/18 11:14:55;;;;;;;11.30;7.47;;;;;;;;;;6203036;28;20473;-86
2021/04/18 11:17:56;;;;;;;9.07;7.47;;;10.20;83.90;;;;;;6196079;28;20080;-85
2021/04/18 11:20:56;;;;;;;9.57;7.80;;;10.40;88.40;;;;;;6203770;28;20464;-84
2021/04/18 11:24:27;;;;;;;8.77;6.78;;;10.90;95.50;;;;;;6188893;28;20056;-83
2021/04/18 11:27:27;;;;;;;7.82;6.72;;;12.20;89.10;;;;;;6211184;28;20037;-82
2021/04/18 11:30:28;;;;;;;8.10;6.93;;;10.40;86.70;;;;;;6202408;28;20508;-83
2021/04/18 11:33:29;;;;;;;8.48;6.47;;;10.30;87.00;;;;;;6197171;28;20029;-82
2021/04/18 11:36:29;;;;;;;7.80;6.38;;;10.20;86.60;;;;;;6188474;28;20022;-82
2021/04/18 11:39:30;;;;;;;9.70;7.38;;;10.10;86.30;;;;;;6189310;28;20033;-81
2021/04/18 11:42:39;;;;;;;7.60;6.72;;;9.70;96.00;;;;;;6187731;28;20153;-82
2021/04/18 11:45:40;;;;;;;9.85;7.43;;;11.50;84.80;;;;;;6203600;28;20026;-79
2021/04/18 11:48:40;;;;;;;8.82;6.10;;;9.60;87.90;;;;;;6204055;28;20040;-78
2021/04/18 11:51:41;;;;;;;7.63;6.53;;;9.50;89.30;;;;;;6219836;28;20483;-77
2021/04/18 11:54:42;;;;;;;9.50;6.43;;;9.80;89.10;;;;;;6212179;28;20038;-77
2021/04/18 11:57:43;;;;;;;8.40;6.97;;;9.70;88.50;;;;;;6221379;28;20542;-78
2021/04/18 12:00:44;;;;;;;7.95;6.70;;;9.70;89.40;;;;;;6188103;28;20030;-77
2021/04/18 12:03:44;;;;;;;7.32;5.68;;;9.20;90.10;;;;;;6219624;28;20527;-78
2021/04/18 12:06:45;;;;;;;8.40;6.55;;;9.30;90.20;;;;;;6219752;28;20034;-77
2021/04/18 12:09:46;;;;;;;8.02;6.68;;;9.30;89.20;;;;;;6187285;28;20049;-77
2021/04/18 12:12:46;;;;;;;7.45;6.30;;;9.40;89.40;;;;;;6219657;28;20089;-78
2021/04/18 12:15:47;;;;;;;8.60;6.82;;;9.50;88.20;;;;;;6217977;28;20491;-78
2021/04/18 12:18:48;;;;;;;8.82;6.57;;;9.70;88.30;;;;;;6188154;28;20479;-77
2021/04/18 12:21:48;;;;;;;8.43;6.80;;;10.50;90.40;;;;;;6218975;28;20033;-77
2021/04/18 12:24:49;;;;;;;8.90;7.20;;;10.80;85.80;;;;;;6219301;28;20555;-77
2021/04/18 12:27:49;;;;;;;9.05;7.00;;;10.80;94.30;;;;;;6218977;28;20506;-79
2021/04/18 12:30:50;;;;;;;11.63;5.97;;;11.10;83.70;;;;;;6187830;28;20057;-78
2021/04/18 12:33:51;;;;;;;9.80;6.68;;;;;;;;;;6211102;28;20077;-78
2021/04/18 12:36:52;;;;;;;7.80;6.32;;;10.80;74.10;;;;;;6212484;28;20374;-78
2021/04/18 12:39:52;;;;;;;7.53;6.22;;;10.70;94.20;;;;;;6186333;28;20041;-79
2021/04/18 12:42:53;;;;;;;9.45;7.13;;;10.70;82.40;;;;;;6178085;28;20200;-78
2021/04/18 12:45:54;;;;;;;8.00;6.28;;;10.70;82.70;;;;;;6195246;28;20034;-76
2021/04/18 12:48:54;;;;;;;9.15;6.45;;;10.80;82.30;;;;;;6178591;28;20049;-78
2021/04/18 12:51:55;;;;;;;8.25;6.47;;;10.90;79.00;;;;;;6194834;28;20054;-77
2021/04/18 12:54:55;;;;;;;7.95;6.07;;;11.30;78.90;;;;;;6196144;28;20038;-77
2021/04/18 12:57:56;;;;;;;8.57;5.70;;;10.50;79.40;;;;;;6195832;28;20116;-80
2021/04/18 13:00:57;;;;;;;27.08;6.57;;;10.30;82.10;;;;;;6194311;28;20031;-80
2021/04/18 13:03:58;;;;;;;6.93;5.90;;;10.40;82.40;;;;;;6194969;28;20085;-78
2021/04/18 13:06:58;;;;;;;8.65;6.70;;;10.40;82.30;;;;;;6194065;28;20021;-78
2021/04/18 13:10:04;;;;;;;9.18;6.15;;;10.40;81.30;;;;;;6180485;28;20034;-78
2021/04/18 13:13:04;;;;;;;7.47;6.47;;;10.40;79.60;;;;;;6179403;28;20394;-78
2021/04/18 13:16:05;;;;;;;7.13;6.40;;;10.60;81.00;;;;;;6195272;28;20045;-78
2021/04/18 13:19:06;;;;;;;6.50;5.80;;;10.00;99.10;;;;;;6193871;28;20035;-79
2021/04/18 13:22:06;;;;;;;6.97;6.28;;;9.90;92.10;;;;;;6193912;28;20062;-77
2021/04/18 13:25:08;;;;;;;7.38;6.18;;;9.90;92.30;;;;;;6194676;28;20026;-77
2021/04/18 13:28:09;;;;;;;7.05;6.35;;;9.80;93.20;;;;;;6177182;28;20507;-77
2021/04/18 13:31:09;;;;;;;7.38;6.00;;;10.00;95.00;;;;;;6193834;28;20042;-78
2021/04/18 13:34:10;;;;;;;7.57;6.15;;;9.90;99.90;;;;;;6193992;28;20056;-79
2021/04/18 13:37:11;;;;;;;8.18;6.15;;;9.80;94.00;;;;;;6193687;28;20477;-79
2021/04/18 13:40:13;;;;;;;6.63;5.60;;;10.00;99.90;;;;;;6193446;28;20022;-78
2021/04/18 13:43:13;;;;;;;7.15;5.43;;;10.00;94.50;;;;;;6176945;28;20050;-78
2021/04/18 13:46:14;;;;;;;9.82;6.13;;;10.10;99.30;;;;;;6209138;28;20054;-77
2021/04/18 13:49:15;;;;;;;9.90;5.95;;;;;;;;;;6209945;28;20445;-78
2021/04/18 13:52:15;;;;;;;9.02;7.97;;;10.00;98.70;;;;;;6193987;28;20429;-77
2021/04/18 13:55:16;;;;;;;6.80;6.10;;;;;;;;;;6193891;28;20080;-78
2021/04/18 13:58:17;;;;;;;7.00;6.30;;;10.20;99.50;;;;;;6209070;28;20121;-78
2021/04/18 14:01:18;;;;;;;7.28;6.30;;;;;;;;;;6194785;28;20066;-77
2021/04/18 14:04:34;;;;;;;7.85;6.55;;;10.80;90.60;;;;;;6208451;28;20065;-77
2021/04/18 14:07:35;;;;;;;7.22;6.22;;;10.70;79.90;;;;;;6192702;28;20030;-78
2021/04/18 14:10:35;;;;;;;7.68;6.50;;;10.70;79.50;;;;;;6194582;28;20473;-78
2021/04/18 14:13:36;;;;;;;6.63;5.68;;;11.20;79.50;;;;;;6208916;28;20105;-78
2021/04/18 14:16:37;;;;;;;7.22;5.97;;;10.90;80.30;;;;;;6177061;28;20077;-78
2021/04/18 14:19:37;;;;;;;7.70;6.15;;;11.00;80.50;;;;;;6193244;28;20034;-77
2021/04/18 14:22:39;;;;;;;8.55;6.32;;;10.90;92.10;;;;;;6177511;28;20085;-78
2021/04/18 14:25:39;;;;;;;7.20;6.03;;;10.80;77.80;;;;;;6193071;28;20141;-78
2021/04/18 14:28:40;;;;;;;8.27;5.68;;;10.70;78.00;;;;;;6193311;28;20038;-78
2021/04/18 14:31:41;;;;;;;6.88;5.95;;;10.50;79.30;;;;;;6192775;28;20022;-78
2021/04/18 14:34:46;;;;;;;7.28;5.80;;;10.50;80.20;;;;;;6193993;28;20116;-78
2021/04/18 14:37:46;;;;;;;7.13;5.80;;;10.50;78.40;;;;;;6192582;28;20455;-78
2021/04/18 14:40:47;;;;;;;7.90;5.90;;;10.00;80.60;;;;;;6192799;28;20039;-78
2021/04/18 14:43:47;;;;;;;8.55;6.32;;;9.90;82.80;;;;;;6202758;28;20060;-78
2021/04/18 14:46:48;;;;;;;7.75;5.70;;;9.80;83.50;;;;;;6196378;28;20629;-78
2021/04/18 14:49:49;;;;;;;8.10;6.13;;;9.70;95.20;;;;;;6216561;28;20464;-79
2021/04/18 14:52:49;;;;;;;7.05;6.25;;;9.50;84.20;;;;;;6215130;28;20395;-79
2021/04/18 14:55:50;;;;;;;7.43;6.55;;;9.60;86.10;;;;;;6214095;28;20026;-78
2021/04/18 14:58:50;;;;;;;8.80;6.28;;;9.40;85.10;;;;;;6179026;28;20358;-78
2021/04/18 15:01:51;;;;;;;8.02;6.00;;;9.50;85.10;;;;;;6193594;28;20070;-78
2021/04/18 15:04:52;;;;;;;8.05;6.35;;;9.40;85.00;;;;;;6200140;28;20136;-78
2021/04/18 15:07:54;;;;;;;8.75;6.47;;;9.40;85.30;;;;;;6218477;28;20112;-78
2021/04/18 15:10:57;;;;;;;9.00;6.90;;;9.60;95.30;;;;;;6198031;28;20649;-78
2021/04/18 15:14:04;;;;;;;9.48;6.35;;;9.70;95.60;;;;;;6209440;28;20042;-77
2021/04/18 15:21:09;;;;;;;6.15;5.43;;;9.30;95.30;;;;;;6092817;29;20044;-78
2021/04/18 15:24:49;;;;;;;9.40;6.10;;;9.70;94.90;;;;;;6084858;29;20055;-78
2021/04/18 15:27:53;;;;;;;7.95;6.35;;;9.70;80.00;;;;;;6093082;29;20036;-77
2021/04/18 15:35:16;;;;;;;7.43;6.25;;;10.50;81.40;;;;;;6069129;29;20049;-78
2021/04/18 15:38:19;;;;;;;7.82;6.47;;;9.90;81.10;;;;;;6080241;29;20040;-79
2021/04/18 15:41:20;;;;;;;8.05;6.03;;;9.60;82.50;;;;;;6079511;29;20446;-79
2021/04/18 15:44:23;;;;;;;11.80;6.82;;;9.40;94.90;;;;;;6074917;29;20051;-79
2021/04/18 15:51:31;;;;;;;9.70;6.60;;;9.60;82.10;;;;;;6090391;29;20072;-79
2021/04/18 15:54:31;;;;;;;8.35;5.95;;;9.50;84.60;;;;;;6073357;29;20044;-78
2021/04/18 15:57:32;;;;;;;10.18;6.10;;;9.50;95.50;;;;;;6143170;28;20038;-78
2021/04/18 16:00:44;;;;;;;8.20;6.35;;;9.60;84.70;;;;;;6190346;28;20036;-79
2021/04/18 16:03:45;;;;;;;7.70;6.32;;;9.50;95.10;;;;;;6197715;28;20042;-78
2021/04/18 16:06:48;;;;;;;18.52;6.82;;;9.70;98.40;;;;;;6198236;28;20034;-79
2021/04/18 16:09:49;;;;;;;7.15;5.90;;;9.60;95.00;;;;;;6196995;28;20034;-78
2021/04/18 16:12:50;;;;;;;9.52;6.75;;;9.50;95.30;;;;;;6194544;28;20564;-77
2021/04/18 16:15:56;;;;;;;7.40;5.82;;;9.30;84.90;;;;;;6182920;28;20039;-78